createdAt,value
2018-05-08T00:00:38.538Z,15.40
2018-05-08T00:03:07.283Z,15.30
2018-05-08T00:05:35.104Z,15.30
2018-05-08T00:08:02.912Z,15.30
2018-05-08T00:10:30.837Z,15.30
2018-05-08T00:12:58.667Z,15.30
2018-05-08T00:15:26.533Z,15.20
2018-05-08T00:17:54.450Z,15.20
2018-05-08T00:20:22.307Z,15.20
2018-05-08T00:22:50.218Z,15.10
2018-05-08T00:25:18.548Z,15.10
2018-05-08T00:27:47.167Z,15.00
2018-05-08T00:30:15.127Z,15.00
2018-05-08T00:32:43.008Z,15.00
2018-05-08T00:35:10.841Z,14.90
2018-05-08T00:37:38.742Z,14.90
2018-05-08T00:40:06.612Z,14.90
2018-05-08T00:42:34.579Z,15.00
2018-05-08T00:45:02.434Z,14.90
2018-05-08T00:47:30.331Z,14.90
2018-05-08T00:49:58.338Z,14.80
2018-05-08T00:52:26.801Z,14.80
2018-05-08T00:55:07.633Z,14.80
2018-05-08T00:57:35.372Z,14.80
2018-05-08T01:00:03.145Z,14.80
2018-05-08T01:02:30.889Z,14.80
2018-05-08T01:04:59.705Z,14.60
2018-05-08T01:07:27.474Z,14.60
2018-05-08T01:09:55.423Z,14.60
2018-05-08T01:12:23.282Z,14.50
2018-05-08T01:14:51.145Z,14.50
2018-05-08T01:17:19.795Z,14.40
2018-05-08T01:19:47.735Z,14.40
2018-05-08T01:22:15.635Z,14.40
2018-05-08T01:24:43.578Z,14.40
2018-05-08T01:27:11.451Z,14.30
2018-05-08T01:29:39.297Z,14.20
2018-05-08T01:32:07.160Z,14.20
2018-05-08T01:34:35.017Z,14.20
2018-05-08T01:37:02.861Z,14.20
2018-05-08T01:39:31.538Z,14.10
2018-05-08T01:42:00.201Z,14.20
2018-05-08T01:44:28.135Z,14.20
2018-05-08T01:46:56.072Z,14.20
2018-05-08T01:49:24.704Z,14.10
2018-05-08T01:51:52.616Z,14.10
2018-05-08T01:54:21.399Z,14.00
2018-05-08T01:56:50.045Z,14.00
2018-05-08T01:59:17.969Z,13.90
2018-05-08T02:01:46.787Z,13.80
2018-05-08T02:04:14.668Z,13.80
2018-05-08T02:06:42.566Z,13.80
2018-05-08T02:09:10.636Z,13.80
2018-05-08T02:11:39.248Z,13.80
2018-05-08T02:14:07.883Z,13.80
2018-05-08T02:16:35.834Z,13.80
2018-05-08T02:19:03.780Z,13.80
2018-05-08T02:21:31.595Z,13.70
2018-05-08T02:23:59.531Z,13.70
2018-05-08T02:26:27.407Z,13.60
2018-05-08T02:28:55.388Z,13.60
2018-05-08T02:31:23.372Z,13.60
2018-05-08T02:33:51.295Z,13.60
2018-05-08T02:36:19.148Z,13.60
2018-05-08T02:38:47.118Z,13.50
2018-05-08T02:41:15.709Z,13.50
2018-05-08T02:43:43.578Z,13.40
2018-05-08T02:46:11.600Z,13.50
2018-05-08T02:48:39.507Z,13.40
2018-05-08T02:51:07.349Z,13.40
2018-05-08T02:53:35.241Z,13.40
2018-05-08T02:56:03.144Z,13.40
2018-05-08T02:58:31.015Z,13.20
2018-05-08T03:00:58.953Z,13.20
2018-05-08T03:03:26.857Z,13.20
2018-05-08T03:05:54.727Z,13.10
2018-05-08T03:08:22.668Z,13.20
2018-05-08T03:10:50.504Z,13.00
2018-05-08T03:13:19.135Z,12.90
2018-05-08T03:15:47.054Z,12.90
2018-05-08T03:18:16.748Z,12.90
2018-05-08T03:20:45.457Z,12.90
2018-05-08T03:23:14.168Z,12.80
2018-05-08T03:25:42.017Z,12.80
2018-05-08T03:28:10.619Z,12.90
2018-05-08T03:30:38.655Z,12.90
2018-05-08T03:33:07.266Z,12.90
2018-05-08T03:35:35.823Z,12.90
2018-05-08T03:38:04.479Z,12.90
2018-05-08T03:40:32.362Z,12.90
2018-05-08T03:43:00.243Z,12.90
2018-05-08T03:45:28.924Z,12.70
2018-05-08T03:47:57.625Z,12.80
2018-05-08T03:50:26.275Z,12.80
2018-05-08T03:52:54.207Z,12.80
2018-05-08T03:55:22.108Z,12.80
2018-05-08T03:57:50.092Z,12.70
2018-05-08T04:00:29.747Z,13.00
2018-05-08T04:03:10.193Z,13.50
2018-05-08T04:05:49.916Z,13.50
2018-05-08T04:08:29.604Z,13.80
2018-05-08T04:10:57.517Z,14.00
2018-05-08T04:13:25.455Z,14.10
2018-05-08T04:15:53.312Z,14.20
2018-05-08T04:18:22.140Z,14.40
2018-05-08T04:20:50.053Z,14.40
2018-05-08T04:23:17.928Z,14.30
2018-05-08T04:25:46.572Z,14.00
2018-05-08T04:28:14.384Z,14.00
2018-05-08T04:30:43.035Z,13.80
2018-05-08T04:33:11.071Z,13.70
2018-05-08T04:35:38.958Z,13.60
2018-05-08T04:38:06.791Z,13.50
2018-05-08T04:40:34.715Z,13.40
2018-05-08T04:43:02.613Z,13.20
2018-05-08T04:45:31.231Z,13.20
2018-05-08T04:47:59.094Z,13.20
2018-05-08T04:50:27.021Z,13.20
2018-05-08T04:52:55.642Z,13.20
2018-05-08T04:55:23.557Z,13.20
2018-05-08T04:57:51.436Z,13.20
2018-05-08T05:00:19.303Z,13.10
2018-05-08T05:02:47.257Z,13.10
2018-05-08T05:05:15.093Z,13.10
2018-05-08T05:07:42.948Z,13.10
2018-05-08T05:10:10.879Z,13.10
2018-05-08T05:12:39.552Z,13.20
2018-05-08T05:15:07.459Z,13.20
2018-05-08T05:17:35.375Z,13.20
2018-05-08T05:20:03.277Z,13.20
2018-05-08T05:22:32.044Z,13.30
2018-05-08T05:25:00.040Z,13.30
2018-05-08T05:27:28.752Z,13.30
2018-05-08T05:29:56.620Z,13.30
2018-05-08T05:32:24.493Z,13.40
2018-05-08T05:34:52.412Z,13.40
2018-05-08T05:37:21.036Z,13.50
2018-05-08T05:39:49.052Z,13.50
2018-05-08T05:42:16.864Z,13.60
2018-05-08T05:44:44.656Z,13.60
2018-05-08T05:47:12.624Z,13.80
2018-05-08T05:49:40.435Z,13.90
2018-05-08T05:52:09.101Z,14.10
2018-05-08T05:54:37.073Z,14.10
2018-05-08T05:57:04.943Z,14.20
2018-05-08T05:59:32.805Z,14.20
2018-05-08T06:02:00.544Z,14.30
2018-05-08T06:04:28.264Z,14.40
2018-05-08T06:06:56.827Z,14.60
2018-05-08T06:09:24.670Z,14.60
2018-05-08T06:11:52.468Z,14.70
2018-05-08T06:14:20.444Z,15.00
2018-05-08T06:16:49.256Z,15.30
2018-05-08T06:19:17.151Z,15.30
2018-05-08T06:21:45.072Z,15.40
2018-05-08T06:24:13.809Z,15.70
2018-05-08T06:26:41.672Z,15.80
2018-05-08T06:29:09.474Z,15.90
2018-05-08T06:31:37.367Z,16.10
2018-05-08T06:34:05.269Z,16.10
2018-05-08T06:36:33.167Z,16.30
2018-05-08T06:39:01.082Z,16.40
2018-05-08T06:41:28.885Z,16.60
2018-05-08T06:43:56.772Z,16.60
2018-05-08T06:46:24.924Z,16.80
2018-05-08T06:48:52.820Z,16.80
2018-05-08T06:51:21.590Z,17.00
2018-05-08T06:53:49.499Z,17.00
2018-05-08T06:56:17.303Z,17.20
2018-05-08T06:58:45.187Z,17.30
2018-05-08T07:01:13.182Z,17.30
2018-05-08T07:03:41.921Z,17.10
2018-05-08T07:06:09.813Z,17.10
2018-05-08T07:08:37.701Z,17.00
2018-05-08T07:11:06.462Z,17.00
2018-05-08T07:13:34.344Z,17.00
2018-05-08T07:16:02.433Z,17.00
2018-05-08T07:18:30.181Z,17.00
2018-05-08T07:20:58.020Z,17.00
2018-05-08T07:23:26.070Z,17.10
2018-05-08T07:25:54.075Z,17.10
2018-05-08T07:28:21.983Z,17.20
2018-05-08T07:30:50.729Z,17.40
2018-05-08T07:33:18.664Z,17.30
2018-05-08T07:35:46.583Z,17.40
2018-05-08T07:38:14.582Z,17.40
2018-05-08T07:40:43.139Z,17.60
2018-05-08T07:43:10.961Z,17.60
2018-05-08T07:45:38.859Z,17.60
2018-05-08T07:48:06.737Z,17.70
2018-05-08T07:50:34.665Z,17.70
2018-05-08T07:53:02.591Z,17.80
2018-05-08T07:55:31.216Z,18.00
2018-05-08T07:57:59.077Z,17.90
2018-05-08T08:00:26.968Z,18.00
2018-05-08T08:02:54.768Z,18.20
2018-05-08T08:05:23.404Z,18.30
2018-05-08T08:07:51.376Z,18.30
2018-05-08T08:10:19.310Z,18.30
2018-05-08T08:12:47.971Z,18.50
2018-05-08T08:15:16.004Z,18.50
2018-05-08T08:17:43.904Z,18.50
2018-05-08T08:20:11.777Z,18.50
2018-05-08T08:22:39.647Z,18.50
2018-05-08T08:25:08.301Z,18.40
2018-05-08T08:27:36.157Z,18.40
2018-05-08T08:30:04.139Z,18.50
2018-05-08T08:32:32.048Z,18.60
2018-05-08T08:35:00.700Z,19.10
2018-05-08T08:37:28.667Z,19.10
2018-05-08T08:39:56.517Z,19.30
2018-05-08T08:42:24.349Z,19.60
2018-05-08T08:44:52.299Z,19.90
2018-05-08T08:47:21.020Z,20.20
2018-05-08T08:49:48.969Z,20.20
2018-05-08T08:52:17.523Z,20.10
2018-05-08T08:54:45.229Z,20.10
2018-05-08T08:57:13.027Z,20.20
2018-05-08T08:59:40.898Z,20.40
2018-05-08T09:02:08.572Z,20.80
2018-05-08T09:04:36.723Z,21.20
2018-05-08T09:07:04.713Z,21.60
2018-05-08T09:09:33.284Z,22.30
2018-05-08T09:12:01.166Z,22.30
2018-05-08T09:14:29.152Z,22.70
2018-05-08T09:16:57.009Z,23.00
2018-05-08T09:19:24.867Z,23.20
2018-05-08T09:21:52.801Z,23.30
2018-05-08T09:24:20.620Z,23.50
2018-05-08T09:26:49.196Z,23.60
2018-05-08T09:29:17.136Z,23.60
2018-05-08T09:31:45.015Z,23.70
2018-05-08T09:34:12.911Z,23.80
2018-05-08T09:36:41.624Z,23.90
2018-05-08T09:39:09.489Z,23.90
2018-05-08T09:41:37.325Z,24.00
2018-05-08T09:44:05.228Z,24.10
2018-05-08T09:46:33.137Z,24.30
2018-05-08T09:49:01.030Z,24.60
2018-05-08T09:51:28.937Z,24.80
2018-05-08T09:53:56.831Z,24.90
2018-05-08T09:56:24.756Z,25.10
2018-05-08T09:58:53.400Z,25.30
2018-05-08T10:01:21.363Z,25.30
2018-05-08T10:03:49.250Z,25.50
2018-05-08T10:06:17.176Z,25.40
2018-05-08T10:08:44.998Z,25.30
2018-05-08T10:11:13.688Z,25.60
2018-05-08T10:13:42.380Z,25.70
2018-05-08T10:16:11.104Z,25.80
2018-05-08T10:18:39.029Z,25.80
2018-05-08T10:21:08.504Z,26.10
2018-05-08T10:23:36.477Z,26.00
2018-05-08T10:26:04.305Z,26.10
2018-05-08T10:28:32.312Z,26.30
2018-05-08T10:31:00.251Z,26.40
2018-05-08T10:33:28.159Z,26.60
2018-05-08T10:35:56.080Z,26.90
2018-05-08T10:38:24.106Z,27.00
2018-05-08T10:40:52.720Z,27.40
2018-05-08T10:43:20.761Z,27.30
2018-05-08T10:45:49.420Z,27.80
2018-05-08T10:48:17.232Z,27.80
2018-05-08T10:50:45.260Z,28.00
2018-05-08T10:53:13.131Z,27.90
2018-05-08T10:55:40.995Z,28.10
2018-05-08T10:58:08.962Z,28.30
2018-05-08T11:00:37.074Z,28.50
2018-05-08T11:03:05.768Z,28.50
2018-05-08T11:05:33.704Z,28.50
2018-05-08T11:08:02.341Z,27.70
2018-05-08T11:10:30.155Z,27.80
2018-05-08T11:12:58.112Z,27.70
2018-05-08T11:15:25.973Z,27.50
2018-05-08T11:17:53.872Z,27.50
2018-05-08T11:20:22.589Z,27.90
2018-05-08T11:22:50.431Z,27.80
2018-05-08T11:25:19.115Z,27.90
2018-05-08T11:27:47.912Z,27.90
2018-05-08T11:30:16.576Z,28.00
2018-05-08T11:32:44.424Z,28.00
2018-05-08T11:35:12.388Z,28.10
2018-05-08T11:37:40.238Z,28.20
2018-05-08T11:40:08.052Z,28.50
2018-05-08T11:42:36.690Z,28.50
2018-05-08T11:45:04.636Z,28.50
2018-05-08T11:47:32.524Z,28.30
2018-05-08T11:50:00.589Z,28.00
2018-05-08T11:52:28.397Z,27.90
2018-05-08T11:54:56.325Z,27.60
2018-05-08T11:57:24.289Z,27.30
2018-05-08T11:59:52.166Z,27.00
2018-05-08T12:02:20.043Z,27.20
2018-05-08T12:04:47.987Z,27.50
2018-05-08T12:07:15.903Z,27.60
2018-05-08T12:09:43.733Z,27.50
2018-05-08T12:12:11.633Z,27.50
2018-05-08T12:14:40.384Z,27.70
2018-05-08T12:17:09.065Z,27.90
2018-05-08T12:19:36.921Z,27.90
2018-05-08T12:22:04.774Z,27.80
2018-05-08T12:24:33.416Z,28.00
2018-05-08T12:27:01.308Z,28.00
2018-05-08T12:29:29.927Z,27.40
2018-05-08T12:31:57.770Z,27.40
2018-05-08T12:34:26.491Z,26.60
2018-05-08T12:36:54.345Z,26.60
2018-05-08T12:39:22.290Z,26.20
2018-05-08T12:41:50.965Z,25.60
2018-05-08T12:44:19.631Z,25.30
2018-05-08T12:46:47.567Z,25.30
2018-05-08T12:49:15.564Z,25.10
2018-05-08T12:51:43.475Z,24.80
2018-05-08T12:54:12.159Z,24.40
2018-05-08T12:56:40.805Z,24.30
2018-05-08T12:59:08.827Z,24.20
2018-05-08T13:01:36.587Z,24.20
2018-05-08T13:04:05.167Z,23.90
2018-05-08T13:06:33.620Z,23.80
2018-05-08T13:09:01.323Z,23.80
2018-05-08T13:11:29.097Z,23.60
2018-05-08T13:13:56.888Z,23.50
2018-05-08T13:16:24.647Z,23.40
2018-05-08T13:18:53.246Z,23.20
2018-05-08T13:21:21.159Z,23.20
2018-05-08T13:23:49.049Z,23.10
2018-05-08T13:26:17.085Z,23.00
2018-05-08T13:28:45.681Z,22.70
2018-05-08T13:31:13.638Z,22.70
2018-05-08T13:33:41.754Z,22.60
2018-05-08T13:36:09.660Z,22.50
2018-05-08T13:38:37.575Z,22.50
2018-05-08T13:41:05.566Z,22.50
2018-05-08T13:43:33.491Z,22.50
2018-05-08T13:46:02.148Z,22.50
2018-05-08T13:48:30.147Z,22.40
2018-05-08T13:50:58.059Z,22.40
2018-05-08T13:53:25.979Z,22.40
2018-05-08T13:55:54.737Z,22.20
2018-05-08T13:58:22.644Z,22.20
2018-05-08T14:00:50.585Z,22.10
2018-05-08T14:03:18.539Z,22.00
2018-05-08T14:05:46.395Z,21.90
2018-05-08T14:08:14.294Z,21.80
2018-05-08T14:10:42.246Z,21.70
2018-05-08T14:13:10.212Z,21.50
2018-05-08T14:15:38.814Z,20.90
2018-05-08T14:18:06.739Z,20.90
2018-05-08T14:20:34.635Z,20.60
2018-05-08T14:23:02.484Z,20.20
2018-05-08T14:25:30.404Z,19.90
2018-05-08T14:27:59.100Z,19.30
2018-05-08T14:30:27.037Z,19.30
2018-05-08T14:32:54.918Z,19.20
2018-05-08T14:35:23.664Z,18.60
2018-05-08T14:37:51.627Z,18.60
2018-05-08T14:40:19.569Z,18.20
2018-05-08T14:42:47.504Z,18.00
2018-05-08T14:45:16.197Z,17.50
2018-05-08T14:47:44.920Z,17.40
2018-05-08T14:50:12.841Z,17.40
2018-05-08T14:52:41.573Z,17.20
2018-05-08T14:55:09.541Z,17.10
2018-05-08T14:57:37.451Z,17.00
2018-05-08T15:00:05.406Z,16.90
2018-05-08T15:02:33.243Z,16.90
2018-05-08T15:05:01.949Z,17.00
2018-05-08T15:07:29.781Z,17.00
2018-05-08T15:09:58.462Z,16.90
2018-05-08T15:12:27.117Z,17.00
2018-05-08T15:14:55.096Z,17.00
2018-05-08T15:17:23.706Z,17.10
2018-05-08T15:19:51.486Z,17.00
2018-05-08T15:22:19.359Z,17.10
2018-05-08T15:24:47.158Z,16.80
2018-05-08T15:27:14.914Z,16.60
2018-05-08T15:29:42.635Z,16.70
2018-05-08T15:32:10.377Z,16.80
2018-05-08T15:34:38.893Z,17.50
2018-05-08T15:37:06.686Z,17.50
2018-05-08T15:39:34.520Z,17.80
2018-05-08T15:42:02.236Z,18.10
2018-05-08T15:44:29.986Z,18.20
2018-05-08T15:46:57.787Z,18.30
2018-05-08T15:49:26.307Z,18.70
2018-05-08T15:51:54.171Z,18.60
2018-05-08T15:54:22.028Z,18.90
2018-05-08T15:56:49.939Z,19.10
2018-05-08T15:59:17.884Z,19.20
2018-05-08T16:01:45.889Z,19.20
2018-05-08T16:04:13.732Z,19.20
2018-05-08T16:06:42.491Z,19.20
2018-05-08T16:09:10.423Z,19.10
2018-05-08T16:11:39.202Z,19.00
2018-05-08T16:14:07.927Z,18.90
2018-05-08T16:16:35.913Z,18.90
2018-05-08T16:19:03.914Z,18.70
2018-05-08T16:21:31.810Z,18.70
2018-05-08T16:23:59.756Z,18.70
2018-05-08T16:26:27.651Z,18.60
2018-05-08T16:28:56.284Z,18.60
2018-05-08T16:31:24.279Z,18.60
2018-05-08T16:33:52.145Z,18.60
2018-05-08T16:36:19.981Z,18.60
2018-05-08T16:38:47.945Z,18.40
2018-05-08T16:41:15.802Z,18.40
2018-05-08T16:43:43.723Z,18.40
2018-05-08T16:46:11.690Z,18.40
2018-05-08T16:48:39.656Z,18.30
2018-05-08T16:51:07.544Z,18.20
2018-05-08T16:53:37.706Z,18.00
2018-05-08T16:56:05.612Z,18.00
2018-05-08T16:58:33.506Z,18.00
2018-05-08T17:01:10.939Z,18.00
2018-05-08T17:03:39.772Z,17.90
2018-05-08T17:06:09.712Z,17.70
2018-05-08T17:08:38.751Z,17.70
2018-05-08T17:11:06.665Z,17.60
2018-05-08T17:13:35.359Z,17.40
2018-05-08T17:16:03.231Z,17.40
2018-05-08T17:18:31.080Z,17.30
2018-05-08T17:21:00.080Z,17.20
2018-05-08T17:23:28.773Z,17.00
2018-05-08T17:25:57.624Z,16.80
2018-05-08T17:28:27.966Z,16.70
2018-05-08T17:30:55.836Z,16.60
2018-05-08T17:33:24.600Z,16.30
2018-05-08T17:35:52.518Z,16.30
2018-05-08T17:38:22.187Z,16.00
2018-05-08T17:40:51.036Z,15.70
2018-05-08T17:43:19.148Z,15.50
2018-05-08T17:45:47.099Z,15.30
2018-05-08T17:48:14.906Z,15.20
2018-05-08T17:50:43.651Z,15.00
2018-05-08T17:53:11.535Z,15.00
2018-05-08T17:55:39.654Z,14.90
2018-05-08T17:58:10.243Z,14.80
2018-05-08T18:00:38.245Z,14.60
2018-05-08T18:03:06.090Z,14.60
2018-05-08T18:05:34.752Z,14.60
2018-05-08T18:08:03.225Z,14.60
2018-05-08T18:10:31.129Z,14.60
2018-05-08T18:12:59.792Z,14.40
2018-05-08T18:15:27.648Z,14.40
2018-05-08T18:17:55.579Z,14.30
2018-05-08T18:20:23.589Z,14.20
2018-05-08T18:22:51.444Z,14.20
2018-05-08T18:25:20.276Z,14.10
2018-05-08T18:27:49.012Z,14.00
2018-05-08T18:30:16.917Z,13.90
2018-05-08T18:32:46.031Z,13.90
2018-05-08T18:35:14.707Z,13.70
2018-05-08T18:37:42.603Z,13.60
2018-05-08T18:40:10.543Z,13.60
2018-05-08T18:42:39.965Z,13.50
2018-05-08T18:45:07.837Z,13.50
2018-05-08T18:47:35.711Z,13.40
2018-05-08T18:50:03.572Z,13.30
2018-05-08T18:52:33.415Z,13.30
2018-05-08T18:55:01.282Z,13.30
2018-05-08T18:57:29.289Z,13.30
2018-05-08T19:00:02.717Z,13.20
2018-05-08T19:02:30.698Z,13.10
2018-05-08T19:04:59.416Z,13.00
2018-05-08T19:07:27.276Z,13.00
2018-05-08T19:09:55.214Z,12.90
2018-05-08T19:12:23.156Z,13.00
2018-05-08T19:14:57.505Z,13.10
2018-05-08T19:17:25.440Z,13.10
2018-05-08T19:19:58.920Z,13.10
2018-05-08T19:22:26.862Z,13.40
2018-05-08T19:24:54.820Z,13.30
2018-05-08T19:27:22.827Z,13.10
2018-05-08T19:29:56.485Z,13.10
2018-05-08T19:32:24.516Z,13.00
2018-05-08T19:34:57.887Z,13.00
2018-05-08T19:37:31.487Z,13.00
2018-05-08T19:39:59.377Z,12.90
2018-05-08T19:42:27.291Z,12.80
2018-05-08T19:44:55.278Z,12.70
2018-05-08T19:47:23.179Z,12.70
2018-05-08T19:49:51.163Z,12.80
2018-05-08T19:52:19.914Z,12.90
2018-05-08T19:54:47.899Z,12.80
2018-05-08T19:57:15.781Z,12.80
2018-05-08T19:59:43.847Z,12.90
2018-05-08T20:02:11.727Z,12.90
2018-05-08T20:04:39.584Z,12.80
2018-05-08T20:07:08.641Z,12.80
2018-05-08T20:09:36.623Z,12.70
2018-05-08T20:12:04.510Z,12.70
2018-05-08T20:14:32.544Z,12.60
2018-05-08T20:17:00.512Z,12.50
2018-05-08T20:19:28.353Z,12.60
2018-05-08T20:21:57.095Z,12.50
2018-05-08T20:24:24.939Z,12.50
2018-05-08T20:26:52.882Z,12.50
2018-05-08T20:29:20.803Z,12.50
2018-05-08T20:31:48.644Z,12.50
2018-05-08T20:34:16.579Z,12.40
2018-05-08T20:36:45.284Z,12.40
2018-05-08T20:39:13.236Z,12.40
2018-05-08T20:41:41.071Z,12.40
2018-05-08T20:44:08.984Z,12.40
2018-05-08T20:46:36.885Z,12.30
2018-05-08T20:49:04.843Z,12.30
2018-05-08T20:51:33.587Z,12.20
2018-05-08T20:54:02.181Z,12.10
2018-05-08T20:56:29.998Z,12.10
2018-05-08T20:58:57.975Z,12.00
2018-05-08T21:01:25.910Z,12.00
2018-05-08T21:03:53.878Z,11.90
2018-05-08T21:06:21.843Z,11.90
2018-05-08T21:08:49.745Z,11.80
2018-05-08T21:11:17.631Z,11.80
2018-05-08T21:13:45.523Z,11.80
2018-05-08T21:16:13.360Z,11.80
2018-05-08T21:18:41.310Z,11.80
2018-05-08T21:21:09.284Z,11.80
2018-05-08T21:23:37.211Z,11.80
2018-05-08T21:26:05.041Z,11.80
2018-05-08T21:28:39.884Z,11.80
2018-05-08T21:31:14.621Z,11.80
2018-05-08T21:33:42.597Z,11.80
2018-05-08T21:36:10.472Z,11.80
2018-05-08T21:38:38.336Z,11.80
2018-05-08T21:41:06.216Z,11.80
2018-05-08T21:43:34.090Z,11.80
2018-05-08T21:46:01.889Z,11.80
2018-05-08T21:48:29.799Z,11.80
2018-05-08T21:50:57.654Z,11.80
2018-05-08T21:53:25.544Z,11.80
2018-05-08T21:55:53.471Z,11.80
2018-05-08T21:58:22.135Z,11.80
2018-05-08T22:00:50.051Z,11.80
2018-05-08T22:03:18.004Z,11.80
2018-05-08T22:05:46.677Z,11.80
2018-05-08T22:08:15.339Z,11.80
2018-05-08T22:10:43.223Z,11.70
2018-05-08T22:13:11.199Z,11.80
2018-05-08T22:15:39.033Z,11.70
2018-05-08T22:18:07.007Z,11.70
2018-05-08T22:20:34.891Z,11.80
2018-05-08T22:23:02.756Z,11.70
2018-05-08T22:25:30.694Z,11.70
2018-05-08T22:27:58.612Z,11.70
2018-05-08T22:30:27.296Z,11.60
2018-05-08T22:32:55.971Z,11.50
2018-05-08T22:35:23.879Z,11.50
2018-05-08T22:37:52.038Z,11.50
2018-05-08T22:40:19.971Z,11.50
2018-05-08T22:42:47.935Z,11.50
2018-05-08T22:45:15.848Z,11.50
2018-05-08T22:47:43.807Z,11.50
2018-05-08T22:50:12.472Z,11.50
2018-05-08T22:52:40.295Z,11.50
2018-05-08T22:55:08.222Z,11.50
2018-05-08T22:57:36.875Z,11.50
2018-05-08T23:00:04.732Z,11.50
2018-05-08T23:02:32.689Z,11.50
2018-05-08T23:05:00.565Z,11.50
2018-05-08T23:07:28.423Z,11.40
2018-05-08T23:09:56.354Z,11.30
2018-05-08T23:12:24.117Z,11.40
2018-05-08T23:14:52.703Z,11.30
2018-05-08T23:17:21.349Z,11.20
2018-05-08T23:19:49.149Z,11.20
2018-05-08T23:22:18.669Z,11.10
2018-05-08T23:24:47.395Z,11.00
2018-05-08T23:27:15.345Z,11.00
2018-05-08T23:29:44.148Z,11.00
2018-05-08T23:32:12.120Z,11.00
2018-05-08T23:34:40.427Z,11.10
2018-05-08T23:37:08.304Z,11.10
2018-05-08T23:39:36.297Z,11.10
2018-05-08T23:42:04.089Z,11.10
2018-05-08T23:44:32.089Z,11.10
2018-05-08T23:47:01.245Z,11.10
2018-05-08T23:49:29.390Z,11.00
2018-05-08T23:51:59.180Z,11.10
2018-05-08T23:54:27.261Z,11.10
2018-05-08T23:56:55.297Z,11.00
2018-05-08T23:59:23.232Z,11.00
